Time;durP1;ratioP1;P1;durP2;ratioP2;P2;SDS_P1;SDS_P2;PMS_P1;PMS_P2;Temp;Humidity;BMP_temperature;BMP_pressure;BME280_temperature;BME280_humidity;BME280_pressure;Samples;Min_cycle;Max_cycle;Signal;HPM_P1;HPM_P2
2022/01/04 00:00:15;;;;;;;;;;;;;;;11.69;63.23;99279.00;4953258;28;8256;-72
2022/01/04 00:02:42;;;;;;;;;;;;;;;11.69;63.29;99271.28;4953900;28;7234;-72
2022/01/04 00:05:08;;;;;;;;;;;;;;;11.68;62.89;99269.53;4959557;28;6983;-72
2022/01/04 00:07:34;;;;;;;;;;;;;;;11.66;62.95;99260.91;4959163;28;6978;-73
2022/01/04 00:10:00;;;;;;;;;;;;;;;11.65;62.83;99247.22;4959898;28;7948;-72
2022/01/04 00:15:12;;;;;;;;;;;;;;;11.63;63.25;99240.31;4959497;28;7387;-72
2022/01/04 00:17:38;;;;;;;;;;;;;;;11.61;63.45;99224.88;4945400;28;7229;-72
2022/01/04 00:20:06;;;;;;;;;;;;;;;11.62;63.58;99223.19;4959493;28;6956;-72
2022/01/04 00:22:32;;;;;;;;;;;;;;;11.62;63.72;99220.63;4957445;28;6812;-72
2022/01/04 00:24:58;;;;;;;;;;;;;;;11.62;63.33;99212.91;4960213;28;7214;-72
2022/01/04 00:27:23;;;;;;;;;;;;;;;11.62;63.59;99207.78;4944559;28;6969;-72
2022/01/04 00:29:50;;;;;;;;;;;;;;;11.61;63.38;99200.94;4961918;28;6951;-72
2022/01/04 00:32:15;;;;;;;;;;;;;;;11.60;63.35;99199.19;4960681;28;6959;-72
2022/01/04 00:34:41;;;;;;;;;;;;;;;11.59;63.70;99190.59;4963235;28;6875;-73
2022/01/04 00:37:07;;;;;;;;;;;;;;;11.59;63.35;99194.84;4961766;28;7115;-73
2022/01/04 00:39:33;;;;;;;;;;;;;;;11.59;63.47;99187.16;4961157;28;7015;-72
2022/01/04 00:41:59;;;;;;;;;;;;;;;11.58;63.57;99196.56;4960641;28;6833;-72
2022/01/04 00:44:26;;;;;;;;;;;;;;;11.59;63.49;99182.03;4962058;28;6795;-72
2022/01/04 00:46:52;;;;;;;;;;;;;;;11.59;63.63;99175.22;4961597;28;6876;-72
2022/01/04 00:49:20;;;;;;;;;;;;;;;11.59;63.78;99166.63;4962155;28;6792;-72
2022/01/04 00:51:52;;;;;;;;;;;;;;;11.59;63.63;99166.63;4961749;28;6820;-72
2022/01/04 00:54:18;;;;;;;;;;;;;;;11.57;63.52;99150.34;4960984;28;6816;-72
2022/01/04 00:56:46;;;;;;;;;;;;;;;11.57;63.65;99148.66;4943642;28;7251;-72
2022/01/04 00:59:12;;;;;;;;;;;;;;;11.57;63.79;99147.78;4941984;28;6892;-72
2022/01/04 01:01:39;;;;;;;;;;;;;;;11.55;63.43;99137.50;4939376;28;6789;-72
2022/01/04 01:04:07;;;;;;;;;;;;;;;11.56;63.58;99131.53;4942282;28;7060;-72
2022/01/04 01:06:33;;;;;;;;;;;;;;;11.56;63.58;99123.81;4959102;28;7010;-72
2022/01/04 01:08:59;;;;;;;;;;;;;;;11.56;63.76;99123.81;4957852;28;6988;-72
2022/01/04 01:11:25;;;;;;;;;;;;;;;11.54;63.78;99112.66;4959973;28;6808;-72
2022/01/04 01:13:52;;;;;;;;;;;;;;;11.53;63.44;99116.91;4955826;28;6828;-72
2022/01/04 01:16:18;;;;;;;;;;;;;;;11.53;63.55;99110.91;4971864;28;7316;-72
2022/01/04 01:18:44;;;;;;;;;;;;;;;11.52;63.63;99110.06;4959442;28;6800;-72
2022/01/04 01:21:10;;;;;;;;;;;;;;;11.51;63.70;99108.31;4957209;28;7928;-72
2022/01/04 01:23:37;;;;;;;;;;;;;;;11.50;63.21;99104.03;4944093;28;6954;-72
2022/01/04 01:26:06;;;;;;;;;;;;;;;11.50;63.78;99098.00;4971411;28;7888;-72
2022/01/04 01:28:34;;;;;;;;;;;;;;;11.50;63.69;99101.47;4962011;28;6803;-73
2022/01/04 01:31:00;;;;;;;;;;;;;;;11.50;63.39;99101.47;4942179;28;6824;-72
2022/01/04 01:33:27;;;;;;;;;;;;;;;11.50;63.83;99095.44;4955297;28;7250;-72
2022/01/04 01:35:57;;;;;;;;;;;;;;;11.49;63.79;99097.16;4937879;28;7260;-72
2022/01/04 01:38:23;;;;;;;;;;;;;;;11.50;63.59;99098.00;4953594;28;6871;-72
2022/01/04 01:40:51;;;;;;;;;;;;;;;11.50;63.60;99103.16;4955659;28;7224;-72
2022/01/04 01:43:18;;;;;;;;;;;;;;;11.49;63.63;99099.72;4974141;28;7166;-72
2022/01/04 01:45:44;;;;;;;;;;;;;;;11.50;64.01;99103.16;4955453;28;6808;-72
2022/01/04 01:48:11;;;;;;;;;;;;;;;11.50;63.33;99091.19;4960444;28;8074;-72
2022/01/04 01:50:38;;;;;;;;;;;;;;;11.51;63.77;99099.75;4959528;28;6927;-72
2022/01/04 01:53:04;;;;;;;;;;;;;;;11.50;63.56;99101.47;4959003;28;6884;-72
2022/01/04 01:55:31;;;;;;;;;;;;;;;11.52;63.64;99104.91;4961263;28;6820;-73
2022/01/04 01:57:57;;;;;;;;;;;;;;;11.53;63.72;99096.38;4959726;28;7327;-72
2022/01/04 02:00:27;;;;;;;;;;;;;;;11.55;63.68;99096.44;4958500;28;6815;-72
2022/01/04 02:02:53;;;;;;;;;;;;;;;11.55;63.53;99083.59;4943765;28;7092;-72
2022/01/04 02:05:20;;;;;;;;;;;;;;;11.55;63.76;99072.47;4960487;28;6820;-72
2022/01/04 02:07:47;;;;;;;;;;;;;;;11.56;63.59;99069.06;4959348;28;7125;-72
2022/01/04 02:10:13;;;;;;;;;;;;;;;11.55;63.58;99073.34;4958587;28;6824;-72
2022/01/04 02:12:46;;;;;;;;;;;;;;;11.55;63.75;99068.22;4959253;28;7157;-72
2022/01/04 02:15:19;;;;;;;;;;;;;;;11.55;63.74;99068.22;4958164;28;6891;-73
2022/01/04 02:17:45;;;;;;;;;;;;;;;11.56;63.95;99059.69;4960939;28;7129;-72
2022/01/04 02:20:13;;;;;;;;;;;;;;;11.54;63.75;99051.09;4959417;28;7007;-72
2022/01/04 02:22:40;;;;;;;;;;;;;;;11.54;63.84;99045.94;4959082;28;7933;-72
2022/01/04 02:25:07;;;;;;;;;;;;;;;11.55;63.70;99042.56;4957071;28;7044;-72
2022/01/04 02:27:35;;;;;;;;;;;;;;;11.54;63.90;99043.38;4956776;28;6811;-72
2022/01/04 02:30:07;;;;;;;;;;;;;;;11.54;63.73;99030.56;4956328;28;7189;-72
2022/01/04 02:32:34;;;;;;;;;;;;;;;11.53;63.63;99032.25;4942711;28;7299;-72
2022/01/04 02:34:59;;;;;;;;;;;;;;;11.51;63.64;99031.34;4955989;28;7010;-72
2022/01/04 02:37:27;;;;;;;;;;;;;;;11.49;63.65;99037.28;4954632;28;6792;-72
2022/01/04 02:39:55;;;;;;;;;;;;;;;11.49;63.55;99030.47;4956809;28;6965;-72
2022/01/04 02:42:22;;;;;;;;;;;;;;;11.48;63.81;99027.84;4955788;28;6815;-72
2022/01/04 02:44:47;;;;;;;;;;;;;;;11.47;63.88;99024.41;4954987;28;6792;-73
2022/01/04 02:47:15;;;;;;;;;;;;;;;11.46;64.07;99016.69;4954216;28;6803;-72
2022/01/04 02:49:42;;;;;;;;;;;;;;;11.45;64.10;99010.69;4959146;28;7853;-72
2022/01/04 02:52:08;;;;;;;;;;;;;;;11.46;63.44;99017.53;4957352;28;7897;-72
2022/01/04 02:54:34;;;;;;;;;;;;;;;11.45;63.55;99005.53;4956856;28;6822;-73
2022/01/04 02:57:00;;;;;;;;;;;;;;;11.46;64.26;98998.72;4951876;28;6832;-72
2022/01/04 02:59:26;;;;;;;;;;;;;;;11.45;64.05;99002.13;4953759;28;7151;-72
2022/01/04 03:01:52;;;;;;;;;;;;;;;11.44;63.66;98991.00;4941343;28;6963;-72
2022/01/04 03:04:18;;;;;;;;;;;;;;;11.44;63.81;98993.56;4963242;28;6792;-72
2022/01/04 03:06:43;;;;;;;;;;;;;;;11.45;64.02;98991.88;4960561;28;6883;-72
2022/01/04 03:09:09;;;;;;;;;;;;;;;11.44;63.82;98991.00;4960161;28;6875;-72
2022/01/04 03:11:35;;;;;;;;;;;;;;;11.45;63.97;98984.16;4946379;28;7031;-72
2022/01/04 03:14:01;;;;;;;;;;;;;;;11.46;64.08;98986.75;4955803;28;6807;-72
2022/01/04 03:16:27;;;;;;;;;;;;;;;11.47;64.20;98977.38;4959546;28;6867;-72
2022/01/04 03:21:21;;;;;;;;;;;;;;;11.47;64.06;98954.28;4958345;28;7221;-72
2022/01/04 03:23:47;;;;;;;;;;;;;;;11.47;64.11;98939.72;4961650;28;7026;-72
2022/01/04 03:26:12;;;;;;;;;;;;;;;11.47;64.05;98944.00;4958772;28;7913;-72
2022/01/04 03:28:40;;;;;;;;;;;;;;;11.48;63.85;98946.59;4958141;28;6834;-72
2022/01/04 03:31:07;;;;;;;;;;;;;;;11.47;63.87;98934.59;4959039;28;6816;-72
2022/01/04 03:33:35;;;;;;;;;;;;;;;11.48;63.60;98933.75;4961167;28;8130;-72
2022/01/04 03:36:03;;;;;;;;;;;;;;;11.49;63.77;98929.50;4960168;28;6991;-72
2022/01/04 03:38:29;;;;;;;;;;;;;;;11.49;63.61;98921.81;4956166;28;6907;-72
2022/01/04 03:40:55;;;;;;;;;;;;;;;11.50;63.77;98913.28;4944644;28;7039;-72
2022/01/04 03:43:24;;;;;;;;;;;;;;;11.50;64.07;98908.16;4959708;28;7031;-72
2022/01/04 03:45:50;;;;;;;;;;;;;;;11.50;63.78;98906.47;4958214;28;8252;-72
2022/01/04 03:48:16;;;;;;;;;;;;;;;11.52;64.14;98894.53;4962996;28;7274;-73
2022/01/04 03:50:42;;;;;;;;;;;;;;;11.53;63.50;98891.13;4960207;28;7209;-73
2022/01/04 03:53:08;;;;;;;;;;;;;;;11.53;63.52;98878.28;4961990;28;6800;-72
2022/01/04 03:55:34;;;;;;;;;;;;;;;11.55;63.68;98892.84;4962354;28;6807;-72
2022/01/04 03:58:00;;;;;;;;;;;;;;;11.53;63.68;98888.56;4961582;28;6804;-72
2022/01/04 04:00:26;;;;;;;;;;;;;;;11.54;63.63;98886.88;4963171;28;7193;-72
2022/01/04 04:02:52;;;;;;;;;;;;;;;11.53;63.63;98875.72;4957944;28;8201;-72
2022/01/04 04:05:18;;;;;;;;;;;;;;;11.55;63.53;98869.75;4961783;28;7598;-72
2022/01/04 04:07:44;;;;;;;;;;;;;;;11.53;63.61;98855.19;4960527;28;7371;-72
2022/01/04 04:10:10;;;;;;;;;;;;;;;11.52;63.86;98845.78;4957794;28;6800;-72
2022/01/04 04:12:36;;;;;;;;;;;;;;;11.53;63.76;98834.66;4958945;28;6800;-72
2022/01/04 04:15:07;;;;;;;;;;;;;;;11.51;63.72;98826.09;4956196;28;7157;-72
2022/01/04 04:17:33;;;;;;;;;;;;;;;11.50;63.67;98819.22;4958422;28;6831;-72
2022/01/04 04:20:00;;;;;;;;;;;;;;;11.50;63.31;98824.34;4957343;28;6836;-72
2022/01/04 04:22:25;;;;;;;;;;;;;;;11.50;63.30;98814.09;4956880;28;7849;-72
2022/01/04 04:24:51;;;;;;;;;;;;;;;11.51;63.65;98809.81;4955908;28;6860;-72
2022/01/04 04:27:17;;;;;;;;;;;;;;;11.50;63.48;98806.41;4951248;28;6989;-72
2022/01/04 04:29:43;;;;;;;;;;;;;;;11.53;63.74;98797.88;4945933;28;6792;-72
2022/01/04 04:32:09;;;;;;;;;;;;;;;11.54;63.32;98799.63;4953862;28;7162;-72
2022/01/04 04:34:36;;;;;;;;;;;;;;;11.54;63.28;98789.38;4957352;28;6966;-72
2022/01/04 04:37:01;;;;;;;;;;;;;;;11.53;63.46;98782.47;4953580;28;7900;-72
2022/01/04 04:39:27;;;;;;;;;;;;;;;11.53;63.72;98787.59;4934005;28;6807;-72
2022/01/04 04:41:53;;;;;;;;;;;;;;;11.55;63.76;98787.66;4948221;28;6800;-72
2022/01/04 04:44:19;;;;;;;;;;;;;;;11.54;63.37;98789.38;4953659;28;6946;-72
2022/01/04 04:46:45;;;;;;;;;;;;;;;11.54;63.14;98784.22;4939991;28;7177;-72
2022/01/04 04:49:11;;;;;;;;;;;;;;;11.52;63.48;98786.75;4949198;28;6836;-72
2022/01/04 04:51:38;;;;;;;;;;;;;;;11.53;63.34;98785.91;4956471;28;7869;-72
2022/01/04 04:54:04;;;;;;;;;;;;;;;11.53;62.93;98783.34;4960924;28;8050;-72
2022/01/04 04:56:30;;;;;;;;;;;;;;;11.55;63.15;98785.09;4959206;28;6995;-72
2022/01/04 04:58:56;;;;;;;;;;;;;;;11.55;63.06;98790.22;4945953;28;6804;-72
2022/01/04 05:01:22;;;;;;;;;;;;;;;11.56;63.16;98784.25;4974198;28;7066;-72
2022/01/04 05:03:51;;;;;;;;;;;;;;;11.57;63.48;98778.28;4960629;28;6904;-72
2022/01/04 05:06:17;;;;;;;;;;;;;;;11.59;63.29;98781.72;4945657;28;6991;-72
2022/01/04 05:08:43;;;;;;;;;;;;;;;11.60;63.89;98780.91;4957635;28;7372;-72
2022/01/04 05:11:09;;;;;;;;;;;;;;;11.64;63.23;98781.00;4962057;28;6800;-72
2022/01/04 05:13:34;;;;;;;;;;;;;;;11.67;63.32;98785.28;4959818;28;6820;-72
2022/01/04 05:16:00;;;;;;;;;;;;;;;11.72;63.03;98793.06;4939204;28;8088;-72
2022/01/04 05:18:26;;;;;;;;;;;;;;;11.74;63.61;98787.13;4954390;28;7908;-72
2022/01/04 05:20:54;;;;;;;;;;;;;;;11.77;63.09;98782.03;4957546;28;6800;-72
2022/01/04 05:23:20;;;;;;;;;;;;;;;11.80;63.17;98787.25;4958239;28;6835;-72
2022/01/04 05:25:46;;;;;;;;;;;;;;;11.84;62.83;98783.03;4937048;28;6902;-72
2022/01/04 05:28:12;;;;;;;;;;;;;;;11.86;62.78;98786.50;4963195;28;7347;-72
2022/01/04 05:30:37;;;;;;;;;;;;;;;11.89;63.36;98790.81;4959772;28;6796;-72
2022/01/04 05:33:03;;;;;;;;;;;;;;;11.90;62.60;98795.09;4946085;28;7193;-72
2022/01/04 05:35:29;;;;;;;;;;;;;;;11.93;62.91;98787.44;4943158;28;6791;-72
2022/01/04 05:37:54;;;;;;;;;;;;;;;11.95;62.92;98775.50;4960019;28;6784;-72
2022/01/04 05:40:20;;;;;;;;;;;;;;;11.98;62.61;98772.13;4959822;28;7216;-72
2022/01/04 05:42:46;;;;;;;;;;;;;;;12.00;62.55;98770.44;4962213;28;7155;-72
2022/01/04 05:45:12;;;;;;;;;;;;;;;12.00;63.06;98766.19;4961958;28;6796;-72
2022/01/04 05:47:37;;;;;;;;;;;;;;;12.01;63.11;98775.59;4961533;28;7380;-72
2022/01/04 05:50:05;;;;;;;;;;;;;;;12.00;63.05;98758.47;4960391;28;7247;-72
2022/01/04 05:52:33;;;;;;;;;;;;;;;12.01;62.74;98762.75;4959732;28;7609;-72
2022/01/04 05:54:58;;;;;;;;;;;;;;;11.99;62.93;98749.03;4959468;28;6845;-72
2022/01/04 05:57:24;;;;;;;;;;;;;;;11.99;62.36;98746.47;4960168;28;6961;-72
2022/01/04 05:59:50;;;;;;;;;;;;;;;11.97;62.54;98725.03;4944322;28;8274;-72
2022/01/04 06:02:15;;;;;;;;;;;;;;;11.96;62.77;98725.88;4938985;28;7000;-72
2022/01/04 06:04:42;;;;;;;;;;;;;;;11.92;62.34;98731.81;4960948;28;7315;-72
2022/01/04 06:07:08;;;;;;;;;;;;;;;11.88;62.70;98724.88;4944158;28;7803;-72
2022/01/04 06:09:45;;;;;;;;;;;;;;;11.85;62.65;98722.28;4959492;28;6973;-72
2022/01/04 06:15:06;;;;;;;;;;;;;;;11.74;62.32;98724.69;4958735;28;7047;-72
2022/01/04 06:17:42;;;;;;;;;;;;;;;11.71;63.23;98733.19;4944645;28;7033;-72
2022/01/04 06:20:17;;;;;;;;;;;;;;;11.70;62.57;98734.03;4958399;28;7008;-72
2022/01/04 06:22:42;;;;;;;;;;;;;;;11.73;62.68;98728.94;4960579;28;8008;-72
2022/01/04 06:25:12;;;;;;;;;;;;;;;11.74;62.92;98730.66;4946181;28;6788;-72
2022/01/04 06:27:42;;;;;;;;;;;;;;;11.77;63.10;98729.88;4955665;28;6816;-72
2022/01/04 06:30:09;;;;;;;;;;;;;;;11.79;62.86;98729.06;4944596;28;7027;-72
2022/01/04 06:32:38;;;;;;;;;;;;;;;11.80;62.60;98729.91;4960928;28;6882;-72
2022/01/04 06:35:05;;;;;;;;;;;;;;;11.80;62.86;98715.38;4955692;28;7311;-72
2022/01/04 06:37:32;;;;;;;;;;;;;;;11.79;62.51;98703.38;4959066;28;7053;-72
2022/01/04 06:39:58;;;;;;;;;;;;;;;11.78;62.98;98691.41;4957653;28;6835;-72
2022/01/04 06:42:24;;;;;;;;;;;;;;;11.78;62.66;98693.97;4961000;28;6958;-72
2022/01/04 06:44:49;;;;;;;;;;;;;;;11.78;62.70;98700.78;4974583;28;7268;-72
2022/01/04 06:47:15;;;;;;;;;;;;;;;11.76;62.81;98693.06;4960304;28;6875;-72
2022/01/04 06:49:41;;;;;;;;;;;;;;;11.76;62.80;98698.19;4940452;28;7228;-72
2022/01/04 06:52:08;;;;;;;;;;;;;;;11.77;62.74;98694.78;4942917;28;6804;-72
2022/01/04 06:54:34;;;;;;;;;;;;;;;11.78;62.61;98693.97;4959292;28;7034;-72
2022/01/04 06:57:00;;;;;;;;;;;;;;;11.79;62.55;98695.69;4959230;28;6938;-72
2022/01/04 06:59:26;;;;;;;;;;;;;;;11.79;62.79;98692.25;4942652;28;6856;-72
2022/01/04 07:01:52;;;;;;;;;;;;;;;11.78;62.48;98696.53;4957948;28;7558;-72
2022/01/04 07:04:18;;;;;;;;;;;;;;;11.78;62.66;98688.84;4960359;28;7884;-72
2022/01/04 07:06:43;;;;;;;;;;;;;;;11.78;62.29;98677.69;4960120;28;6911;-72
2022/01/04 07:09:09;;;;;;;;;;;;;;;11.76;62.63;98676.81;4960088;28;6836;-72
2022/01/04 07:11:37;;;;;;;;;;;;;;;11.72;62.24;98681.03;4944336;28;6792;-72
2022/01/04 07:14:04;;;;;;;;;;;;;;;11.70;62.75;98682.72;4961191;28;6804;-72
2022/01/04 07:16:30;;;;;;;;;;;;;;;11.67;62.74;98668.13;4941880;28;7262;-72
2022/01/04 07:18:56;;;;;;;;;;;;;;;11.65;62.71;98672.38;4942665;28;6861;-72
2022/01/04 07:21:22;;;;;;;;;;;;;;;11.63;62.70;98675.75;4962852;28;7276;-72
2022/01/04 07:23:48;;;;;;;;;;;;;;;11.60;62.56;98674.00;4956797;28;7199;-72
2022/01/04 07:26:16;;;;;;;;;;;;;;;11.57;62.59;98683.34;4956864;28;6800;-72
2022/01/04 07:28:44;;;;;;;;;;;;;;;11.55;63.08;98677.31;4958317;28;8699;-72
2022/01/04 07:31:11;;;;;;;;;;;;;;;11.53;62.27;98674.72;4959555;28;6824;-72
2022/01/04 07:33:38;;;;;;;;;;;;;;;11.51;62.75;98682.41;4961392;28;6846;-72
2022/01/04 07:36:08;;;;;;;;;;;;;;;11.52;62.99;98681.56;4958325;28;8300;-72
2022/01/04 07:38:36;;;;;;;;;;;;;;;11.53;63.00;98674.72;4956177;28;7336;-72
2022/01/04 07:41:03;;;;;;;;;;;;;;;11.53;62.72;98683.28;4957843;28;7235;-72
2022/01/04 07:43:30;;;;;;;;;;;;;;;11.54;62.58;98673.91;4957743;28;6808;-72
2022/01/04 07:45:56;;;;;;;;;;;;;;;11.55;62.71;98672.19;4956378;28;6808;-72
2022/01/04 07:48:22;;;;;;;;;;;;;;;11.55;63.15;98673.06;4958579;28;6784;-72
2022/01/04 07:50:49;;;;;;;;;;;;;;;11.55;62.92;98673.06;4958700;28;7189;-72
2022/01/04 07:53:15;;;;;;;;;;;;;;;11.57;62.77;98680.75;4939499;28;7137;-72
2022/01/04 07:55:41;;;;;;;;;;;;;;;11.58;62.84;98682.50;4958259;28;7066;-72
2022/01/04 07:58:06;;;;;;;;;;;;;;;11.56;62.89;98679.91;4957623;28;6848;-72
2022/01/04 08:00:32;;;;;;;;;;;;;;;11.57;63.12;98681.63;4960983;28;7690;-72
2022/01/04 08:02:58;;;;;;;;;;;;;;;11.56;62.58;98677.34;4957523;28;7016;-72
2022/01/04 08:05:24;;;;;;;;;;;;;;;11.55;62.95;98688.47;4956798;28;6792;-72
2022/01/04 08:07:50;;;;;;;;;;;;;;;11.55;62.92;98677.31;4958547;28;6800;-72
2022/01/04 08:10:18;;;;;;;;;;;;;;;11.54;62.82;98681.59;4960031;28;6879;-72
2022/01/04 08:12:44;;;;;;;;;;;;;;;11.52;63.13;98681.56;4940903;28;7011;-72
2022/01/04 08:15:11;;;;;;;;;;;;;;;11.51;62.46;98684.09;4941329;28;6980;-72
2022/01/04 08:17:39;;;;;;;;;;;;;;;11.49;63.09;98668.69;4954862;28;7672;-73
2022/01/04 08:20:06;;;;;;;;;;;;;;;11.46;62.96;98658.38;4958560;28;6784;-72
2022/01/04 08:22:34;;;;;;;;;;;;;;;11.41;62.94;98648.88;4956070;28;6812;-72
2022/01/04 08:25:05;;;;;;;;;;;;;;;11.37;63.23;98655.66;4960099;28;6793;-72
2022/01/04 08:27:31;;;;;;;;;;;;;;;11.33;63.23;98656.44;4963666;28;6985;-72
2022/01/04 08:29:58;;;;;;;;;;;;;;;11.31;63.27;98653.00;4962931;28;6795;-72
2022/01/04 08:32:23;;;;;;;;;;;;;;;11.30;63.39;98647.00;4963426;28;7162;-72
2022/01/04 08:34:50;;;;;;;;;;;;;;;11.29;63.47;98644.38;4959828;28;6867;-72
2022/01/04 08:37:16;;;;;;;;;;;;;;;11.29;63.52;98642.69;4960737;28;7189;-72
2022/01/04 08:39:43;;;;;;;;;;;;;;;11.30;63.75;98646.13;4963525;28;7025;-72
2022/01/04 08:42:09;;;;;;;;;;;;;;;11.31;63.62;98653.00;4945423;28;7138;-72
2022/01/04 08:44:39;;;;;;;;;;;;;;;11.32;63.39;98654.72;4963655;28;7126;-72
2022/01/04 08:47:11;;;;;;;;;;;;;;;11.31;63.45;98670.94;4962323;28;6812;-72
2022/01/04 08:49:38;;;;;;;;;;;;;;;11.30;63.45;98669.19;4946776;28;7193;-72
2022/01/04 08:52:06;;;;;;;;;;;;;;;11.31;63.06;98678.66;4957139;28;7150;-72
2022/01/04 08:54:34;;;;;;;;;;;;;;;11.33;63.74;98672.69;4961949;28;7202;-72
2022/01/04 08:57:00;;;;;;;;;;;;;;;11.36;63.83;98666.75;4962032;28;7893;-72
2022/01/04 08:59:27;;;;;;;;;;;;;;;11.37;63.47;98660.78;4961852;28;6780;-72
2022/01/04 09:01:53;;;;;;;;;;;;;;;11.38;63.75;98647.09;4960758;28;7156;-72
2022/01/04 09:04:20;;;;;;;;;;;;;;;11.40;63.44;98668.53;4945501;28;7278;-72
2022/01/04 09:06:46;;;;;;;;;;;;;;;11.40;63.60;98665.97;4958595;28;6973;-73
2022/01/04 09:09:12;;;;;;;;;;;;;;;11.42;63.88;98668.53;4959894;28;6816;-72
2022/01/04 09:11:38;;;;;;;;;;;;;;;11.44;63.96;98679.69;4961694;28;6792;-72
2022/01/04 09:19:22;;;;;;;;;;;;;;;11.55;64.03;98674.75;4959797;28;6932;-72
2022/01/04 09:21:49;;;;;;;;;;;;;;;11.59;63.85;98668.81;4975448;28;7237;-72
2022/01/04 09:24:14;;;;;;;;;;;;;;;11.60;63.53;98666.28;4944960;28;7218;-72
2022/01/04 09:26:40;;;;;;;;;;;;;;;11.64;63.82;98672.34;4961550;28;7061;-73
2022/01/04 09:29:06;;;;;;;;;;;;;;;11.66;63.67;98691.19;4962596;28;6820;-72
2022/01/04 09:31:33;;;;;;;;;;;;;;;11.69;63.48;98685.25;4937761;28;7127;-72
2022/01/04 09:34:01;;;;;;;;;;;;;;;11.69;63.23;98678.41;4962024;28;7948;-72
2022/01/04 09:36:35;;;;;;;;;;;;;;;11.71;63.28;98686.13;4960796;28;6954;-72
2022/01/04 09:39:03;;;;;;;;;;;;;;;11.72;63.35;98685.28;4962553;28;6816;-72
2022/01/04 09:41:29;;;;;;;;;;;;;;;11.71;63.46;98674.16;4959932;28;6808;-72
2022/01/04 09:43:55;;;;;;;;;;;;;;;11.73;63.47;98677.63;4960879;28;6814;-72
2022/01/04 09:46:20;;;;;;;;;;;;;;;11.76;63.66;98682.78;4955963;28;6962;-72
2022/01/04 09:48:46;;;;;;;;;;;;;;;11.80;63.30;98688.84;4959714;28;7280;-72
2022/01/04 09:51:15;;;;;;;;;;;;;;;11.82;63.73;98687.16;4960850;28;7035;-72
2022/01/04 09:53:41;;;;;;;;;;;;;;;11.86;62.82;98676.09;4960032;28;7075;-72
2022/01/04 09:56:07;;;;;;;;;;;;;;;11.89;62.83;98685.56;4942716;28;6883;-72
2022/01/04 09:58:34;;;;;;;;;;;;;;;11.91;63.07;98684.72;4945844;28;6902;-72
2022/01/04 10:00:59;;;;;;;;;;;;;;;11.91;62.90;98689.00;4942838;28;9683;-72
2022/01/04 10:03:31;;;;;;;;;;;;;;;11.93;62.84;98689.88;4960484;28;7840;-72
2022/01/04 10:06:16;;;;;;;;;;;;;;;11.94;63.26;98696.75;4955066;28;7034;-72
2022/01/04 10:08:55;;;;;;;;;;;;;;;11.92;63.43;98699.28;4956625;28;7027;-72
2022/01/04 10:11:39;;;;;;;;;;;;;;;11.91;62.58;98701.84;4959109;28;6903;-72
2022/01/04 10:14:38;;;;;;;;;;;;;;;11.88;62.97;98704.34;4972796;28;7221;-72
2022/01/04 10:17:10;;;;;;;;;;;;;;;11.86;62.97;98703.47;4940961;28;7194;-73
2022/01/04 10:19:45;;;;;;;;;;;;;;;11.87;63.20;98711.19;4959889;28;6848;-72
2022/01/04 10:22:23;;;;;;;;;;;;;;;11.88;63.03;98700.09;4945910;28;7203;-73
2022/01/04 10:25:12;;;;;;;;;;;;;;;11.88;63.22;98694.94;4956089;28;8803;-72
2022/01/04 10:27:46;;;;;;;;;;;;;;;11.89;63.23;98693.25;4960954;28;7278;-72
2022/01/04 10:30:12;;;;;;;;;;;;;;;11.88;63.47;98697.53;4960638;28;7361;-72
2022/01/04 10:33:12;;;;;;;;;;;;;;;11.89;63.02;98690.69;4962067;28;8019;-72
2022/01/04 10:36:13;;;;;;;;;;;;;;;11.89;63.30;98685.56;4911795;28;8488;-72
2022/01/04 10:38:44;;;;;;;;;;;;;;;11.90;63.11;98684.72;4958373;28;6954;-72
2022/01/04 10:41:21;;;;;;;;;;;;;;;11.92;63.47;98691.59;4957857;28;6946;-72
2022/01/04 10:44:04;;;;;;;;;;;;;;;11.95;62.90;98680.50;4957397;28;7040;-72
2022/01/04 10:46:42;;;;;;;;;;;;;;;11.94;63.12;98684.78;4953045;28;6804;-72
2022/01/04 10:49:21;;;;;;;;;;;;;;;11.95;63.32;98688.19;4958770;28;6808;-72
2022/01/04 10:52:08;;;;;;;;;;;;;;;11.96;62.89;98682.22;4943150;28;7229;-72
2022/01/04 10:54:34;;;;;;;;;;;;;;;11.98;63.22;98674.56;4958780;28;6976;-72
2022/01/04 10:57:09;;;;;;;;;;;;;;;11.99;62.68;98674.59;4960342;28;7720;-72
2022/01/04 10:59:36;;;;;;;;;;;;;;;12.00;62.47;98671.19;4959269;28;6812;-72
2022/01/04 11:02:03;;;;;;;;;;;;;;;12.00;63.20;98676.31;4961304;28;7247;-72
2022/01/04 11:04:30;;;;;;;;;;;;;;;11.99;62.87;98679.72;4960097;28;7179;-73
2022/01/04 11:07:02;;;;;;;;;;;;;;;11.99;62.92;98687.44;4942492;28;8685;-72
2022/01/04 11:09:30;;;;;;;;;;;;;;;11.99;63.12;98684.84;4956722;28;8473;-72
2022/01/04 11:11:56;;;;;;;;;;;;;;;12.00;62.34;98690.84;4973520;28;6871;-72
2022/01/04 11:14:21;;;;;;;;;;;;;;;12.00;62.31;98690.84;4959513;28;8365;-72
2022/01/04 11:16:48;;;;;;;;;;;;;;;12.00;62.55;98681.44;4943670;28;6962;-73
2022/01/04 11:19:13;;;;;;;;;;;;;;;12.02;62.25;98676.31;4976100;28;6901;-72
2022/01/04 11:21:43;;;;;;;;;;;;;;;12.05;62.56;98666.97;4959700;28;6780;-72
2022/01/04 11:24:13;;;;;;;;;;;;;;;12.07;63.02;98673.03;4956859;28;6971;-72
2022/01/04 11:26:45;;;;;;;;;;;;;;;12.11;63.00;98670.50;4959157;28;6970;-72
2022/01/04 11:29:13;;;;;;;;;;;;;;;12.15;62.55;98672.25;4953760;28;7196;-72
2022/01/04 11:32:08;;;;;;;;;;;;;;;12.19;62.54;98674.03;4957082;28;7305;-72
2022/01/04 11:35:16;;;;;;;;;;;;;;;12.21;62.80;98685.19;4950940;28;6811;-71
2022/01/04 11:37:54;;;;;;;;;;;;;;;12.25;63.13;98694.66;4955153;28;7105;-73
2022/01/04 11:40:31;;;;;;;;;;;;;;;12.29;62.50;98691.28;4960294;28;7036;-72
2022/01/04 11:42:58;;;;;;;;;;;;;;;12.34;62.37;98693.94;4959658;28;7248;-72
2022/01/04 11:45:45;;;;;;;;;;;;;;;12.38;62.72;98687.97;4953577;28;7135;-72
2022/01/04 11:48:32;;;;;;;;;;;;;;;12.42;62.43;98683.75;4955316;28;6812;-72
2022/01/04 11:51:01;;;;;;;;;;;;;;;12.42;62.28;98686.31;4941373;28;7297;-72
2022/01/04 11:53:27;;;;;;;;;;;;;;;12.44;61.95;98688.06;4958532;28;6872;-72
2022/01/04 11:56:03;;;;;;;;;;;;;;;12.46;62.10;98678.66;4943324;28;7345;-72
2022/01/04 11:58:50;;;;;;;;;;;;;;;12.49;61.70;98680.41;4958687;28;7136;-72
2022/01/04 12:01:27;;;;;;;;;;;;;;;12.48;61.76;98678.69;4956649;28;8084;-72
2022/01/04 12:03:53;;;;;;;;;;;;;;;12.47;61.60;98671.84;4932449;28;6816;-72
2022/01/04 12:06:33;;;;;;;;;;;;;;;12.48;62.57;98673.56;4939359;28;6916;-72
2022/01/04 12:08:59;;;;;;;;;;;;;;;12.48;61.93;98676.13;4960359;28;7238;-72
2022/01/04 12:11:24;;;;;;;;;;;;;;;12.47;61.86;98676.97;4956933;28;7425;-72
2022/01/04 12:14:00;;;;;;;;;;;;;;;12.46;61.94;98668.38;4955596;28;7126;-72
2022/01/04 12:16:43;;;;;;;;;;;;;;;12.46;61.62;98672.69;4943184;28;6808;-72
2022/01/04 12:19:11;;;;;;;;;;;;;;;12.46;61.52;98680.38;4973009;28;6819;-72
2022/01/04 12:21:45;;;;;;;;;;;;;;;12.47;62.04;98682.97;4959322;28;6862;-72
2022/01/04 12:24:15;;;;;;;;;;;;;;;12.50;62.39;98679.56;4939356;28;7014;-72
2022/01/04 12:26:42;;;;;;;;;;;;;;;12.53;62.15;98676.19;4956541;28;6967;-72
2022/01/04 12:29:07;;;;;;;;;;;;;;;12.56;61.97;98671.94;4944279;28;6963;-72
2022/01/04 12:31:45;;;;;;;;;;;;;;;12.55;61.54;98659.91;4974548;28;7125;-72
2022/01/04 12:34:31;;;;;;;;;;;;;;;12.56;62.05;98648.81;4959246;28;6808;-72
2022/01/04 12:36:57;;;;;;;;;;;;;;;12.56;61.55;98637.66;4958760;28;6904;-72
2022/01/04 12:39:36;;;;;;;;;;;;;;;12.59;62.47;98650.53;4957985;28;6998;-72
2022/01/04 12:42:04;;;;;;;;;;;;;;;12.61;61.51;98656.59;4956018;28;6820;-72
2022/01/04 12:44:30;;;;;;;;;;;;;;;12.62;61.99;98651.44;4939657;28;6812;-72
2022/01/04 12:46:58;;;;;;;;;;;;;;;12.65;61.52;98645.47;4949786;28;6824;-72
2022/01/04 12:49:28;;;;;;;;;;;;;;;12.66;61.59;98630.94;4957708;28;7250;-72
2022/01/04 12:51:56;;;;;;;;;;;;;;;12.68;62.02;98624.09;4972478;28;7024;-72
2022/01/04 12:54:38;;;;;;;;;;;;;;;12.70;62.20;98622.41;4975357;28;7043;-72
2022/01/04 12:57:20;;;;;;;;;;;;;;;12.74;62.30;98631.84;4954884;28;6820;-72
2022/01/04 12:59:56;;;;;;;;;;;;;;;12.77;62.12;98624.19;4957473;28;6807;-72
2022/01/04 13:02:29;;;;;;;;;;;;;;;12.80;61.93;98619.06;4937569;28;6966;-72
2022/01/04 13:05:01;;;;;;;;;;;;;;;12.83;61.75;98616.53;4953654;28;7408;-72
2022/01/04 13:07:36;;;;;;;;;;;;;;;12.85;62.07;98622.56;4955744;28;6819;-72
2022/01/04 13:10:14;;;;;;;;;;;;;;;12.87;61.45;98622.56;4956423;28;6905;-72
2022/01/04 13:12:44;;;;;;;;;;;;;;;12.88;61.77;98622.59;4956805;28;6800;-72
2022/01/04 13:15:14;;;;;;;;;;;;;;;12.89;60.63;98621.75;4961095;28;6991;-72
2022/01/04 13:17:52;;;;;;;;;;;;;;;12.90;60.91;98625.19;4960643;28;7141;-72